LNR87WR LFPG-FACT
Flight info
| Callsign | LNR87WR |
|---|---|
| Flight time | N/A |
| Altitude | 35000 |
| Route | LGL UT176 TERPO DCT ERIGA DCT FUJTI DCT PEPET DCT BAKUP DCT BATAX/N0488F370 DCT PINOX DCT TOFEF DCT ALAGU DCT AMSEL UR722 MABAP DCT BULIS UR866 ONIMI/N0488F390 UR866 OG UR983 UMOVO DCT BUMBO UY149 GANBI DCT 00N002E 05S004E 10S006E/N0484F410 15S008E/N0487F400 18S008E/N0484F410 23S010E DCT UVGOD UQ14 UVIKU/N0462F230 Q35 ASPIK ASPIK1B |
| Aircraft | A359/H-SDE2E3GHIJ1J3J4J5LM1ORWXY/LB1D1 |
Departure
| Time | 2026-05-05 23:24 |
|---|---|
| Airport | Charles de Gaulle International Airport (LFPG) |
Arrival
| Time | N/A |
|---|---|
| Airport | Cape Town International Airport (FACT) |
| Time | Latitude | Longitude | Altitude | Speed | Heading |
|---|---|---|---|---|---|
| 2026-05-05 23:00 | 49.00141 | 2.57820 | 361 ft | 0 kts | 355° |
| 2026-05-05 23:02 | 49.00156 | 2.57819 | 369 ft | 0 kts | 355° |
| 2026-05-05 23:04 | 49.00141 | 2.57820 | 369 ft | 13 kts | 355° |
| 2026-05-05 23:05 | 49.00156 | 2.57819 | 361 ft | 0 kts | 355° |
| 2026-05-05 23:14 | 49.00143 | 2.57820 | 360 ft | 4 kts | 358° |
| 2026-05-05 23:14 | 49.00116 | 2.57819 | 360 ft | 4 kts | 8° |
| 2026-05-05 23:14 | 49.00090 | 2.57810 | 365 ft | 4 kts | 23° |
| 2026-05-05 23:15 | 49.00069 | 2.57790 | 368 ft | 4 kts | 58° |
| 2026-05-05 23:15 | 49.00064 | 2.57772 | 367 ft | 0 kts | 85° |
| 2026-05-05 23:15 | 49.00064 | 2.57773 | 367 ft | 0 kts | 85° |
| 2026-05-05 23:17 | 49.00064 | 2.57775 | 367 ft | 1 kts | 85° |
| 2026-05-05 23:17 | 49.00066 | 2.57810 | 368 ft | 7 kts | 85° |
| 2026-05-05 23:17 | 49.00071 | 2.57916 | 361 ft | 13 kts | 85° |
| 2026-05-05 23:18 | 49.00077 | 2.58037 | 367 ft | 10 kts | 85° |
| 2026-05-05 23:18 | 49.00082 | 2.58124 | 365 ft | 7 kts | 85° |
| 2026-05-05 23:18 | 49.00085 | 2.58177 | 366 ft | 4 kts | 85° |
| 2026-05-05 23:18 | 49.00088 | 2.58243 | 366 ft | 10 kts | 86° |
| 2026-05-05 23:19 | 49.00048 | 2.58315 | 367 ft | 10 kts | 177° |
| 2026-05-05 23:19 | 49.00008 | 2.58231 | 369 ft | 16 kts | 263° |
| 2026-05-05 23:19 | 48.99994 | 2.57986 | 363 ft | 30 kts | 265° |
| 2026-05-05 23:19 | 48.99976 | 2.57646 | 368 ft | 31 kts | 265° |
| 2026-05-05 23:20 | 48.99959 | 2.57347 | 369 ft | 26 kts | 265° |
| 2026-05-05 23:20 | 48.99943 | 2.57056 | 366 ft | 29 kts | 265° |
| 2026-05-05 23:20 | 48.99926 | 2.56729 | 365 ft | 32 kts | 265° |
| 2026-05-05 23:20 | 48.99910 | 2.56397 | 365 ft | 29 kts | 266° |
| 2026-05-05 23:21 | 48.99894 | 2.56113 | 360 ft | 25 kts | 264° |
| 2026-05-05 23:21 | 48.99894 | 2.55939 | 360 ft | 13 kts | 280° |
| 2026-05-05 23:21 | 48.99891 | 2.55828 | 364 ft | 9 kts | 240° |
| 2026-05-05 23:21 | 48.99848 | 2.55798 | 369 ft | 8 kts | 182° |
| 2026-05-05 23:22 | 48.99771 | 2.55806 | 365 ft | 14 kts | 175° |
| 2026-05-05 23:22 | 48.99662 | 2.55818 | 367 ft | 10 kts | 176° |
| 2026-05-05 23:22 | 48.99612 | 2.55845 | 368 ft | 6 kts | 127° |
| 2026-05-05 23:22 | 48.99605 | 2.55915 | 362 ft | 11 kts | 87° |
| 2026-05-05 23:23 | 48.99620 | 2.56190 | 364 ft | 50 kts | 85° |
| 2026-05-05 23:23 | 48.99663 | 2.56998 | 363 ft | 101 kts | 85° |
| 2026-05-05 23:23 | 48.99732 | 2.58293 | 363 ft | 144 kts | 85° |
| 2026-05-05 23:23 | 48.99815 | 2.59983 | 544 ft | 165 kts | 82° |
| 2026-05-05 23:24 | 48.99912 | 2.61647 | 1196 ft | 157 kts | 79° |
| 2026-05-05 23:24 | 49.00007 | 2.63370 | 1574 ft | 168 kts | 79° |
| 2026-05-05 23:24 | 49.00098 | 2.65149 | 2046 ft | 169 kts | 80° |
| 2026-05-05 23:24 | 49.00191 | 2.66935 | 2516 ft | 169 kts | 79° |
| 2026-05-05 23:25 | 49.00285 | 2.68712 | 2955 ft | 169 kts | 81° |
| 2026-05-05 23:25 | 49.00383 | 2.70519 | 3243 ft | 180 kts | 81° |
| 2026-05-05 23:25 | 49.00508 | 2.72503 | 3434 ft | 197 kts | 81° |
| 2026-05-05 23:25 | 49.00654 | 2.74667 | 3638 ft | 212 kts | 81° |
| 2026-05-05 23:26 | 49.00810 | 2.76979 | 3882 ft | 228 kts | 81° |
| 2026-05-05 23:26 | 49.00990 | 2.79485 | 4072 ft | 247 kts | 81° |
| 2026-05-05 23:26 | 49.01184 | 2.82134 | 4447 ft | 256 kts | 80° |
| 2026-05-05 23:26 | 49.01391 | 2.84871 | 4891 ft | 264 kts | 82° |
| 2026-05-05 23:27 | 49.01591 | 2.87681 | 5412 ft | 270 kts | 86° |
| 2026-05-05 23:27 | 49.01235 | 2.90499 | 5945 ft | 276 kts | 114° |
| 2026-05-05 23:27 | 49.00154 | 2.92913 | 6541 ft | 277 kts | 132° |
| 2026-05-05 23:27 | 48.98735 | 2.94908 | 7165 ft | 279 kts | 141° |
| 2026-05-05 23:28 | 48.97224 | 2.96777 | 7824 ft | 280 kts | 142° |
| 2026-05-05 23:28 | 48.95659 | 2.98541 | 8482 ft | 281 kts | 151° |
| 2026-05-05 23:28 | 48.93809 | 2.99412 | 9149 ft | 280 kts | 177° |
| 2026-05-05 23:28 | 48.91903 | 2.99026 | 9873 ft | 276 kts | 198° |
| 2026-05-05 23:29 | 48.90057 | 2.98040 | 10267 ft | 289 kts | 201° |
| 2026-05-05 23:29 | 48.88205 | 2.96661 | 10533 ft | 305 kts | 213° |
| 2026-05-05 23:29 | 48.86639 | 2.94452 | 10758 ft | 321 kts | 234° |